Flight Track Log - Related Links

Times and Time Zones

All times are in EDT time to prevent confusion due to time zone crossing. See the UAL200 flight status page for this flight to view local times or setup timezone preferences in your user account.

Time Position Orientation Groundspeed Altitude Reporting Facility
EDT Latitude Longitude Course Direction KTS MPH feet Rate Location/Type
Fri 04:49:22 PM 13.4833 144.8167 70° East 190 219 1,300  Level Guam Center
Fri 04:50:22 PM 13.5167 144.8667 56° Northeast 200 230 2,700 1,488 Climbing Guam Center
Fri 04:51:27 PM 13.5333 144.9333 76° East 240 276 4,400 1,920 Climbing Guam Center
Fri 04:52:27 PM 13.5500 145.0000 76° East 270 311 6,700 2,182 Climbing Guam Center
Fri 04:53:00 PM 13.7032 145.4522 70° East  Level FlightAware Approximate
Fri 04:53:28 PM 13.5833 145.0833 68° East 290 334 8,800  Level Guam Center
Fri 04:54:00 PM 13.7496 145.5823 70° East  Level FlightAware Approximate
Fri 04:54:28 PM 13.6167 145.1500 63° Northeast 290 334 11,000  Level Guam Center
Fri 04:55:28 PM 13.6333 145.2500 80° East 300 345 12,100 950 Climbing Guam Center
Fri 04:56:28 PM 13.6667 145.3333 68° East 380 437 12,900 1,400 Climbing Guam Center
Fri 04:57:28 PM 13.7167 145.4500 66° East 380 437 14,900 1,750 Climbing Guam Center
Fri 04:58:28 PM 13.7500 145.5500 71° East 380 437 16,400 1,550 Climbing Guam Center
Fri 04:59:28 PM 13.7833 145.6667 74° East 400 460 18,000 1,438 Climbing Guam Center
Fri 05:00:29 PM 13.8167 145.7833 74° East 410 472 19,300 1,339 Climbing Guam Center
Fri 05:01:29 PM 13.8500 145.9000 74° East 430 495 20,700 1,200 Climbing Guam Center
Fri 05:02:29 PM 13.9000 146.0167 66° East 450 518 21,700 1,200 Climbing Guam Center
Fri 05:03:29 PM 13.9333 146.1333 74° East 450 518 23,100 1,100 Climbing Guam Center
Fri 05:04:29 PM 13.9833 146.2667 69° East 460 529 23,900 1,050 Climbing Guam Center
Fri 05:05:29 PM 14.0167 146.3833 74° East 470 541 25,200 1,091 Climbing Guam Center
Fri 05:06:30 PM 14.0667 146.5167 69° East 480 552 26,100 942 Climbing Guam Center
Fri 05:07:30 PM 14.1167 146.6500 69° East 490 564 27,100 1,000 Climbing Guam Center
Fri 05:08:30 PM 14.1500 146.7833 76° East 490 564 28,100 900 Climbing Guam Center
Fri 05:09:30 PM 14.2000 146.9167 69° East 500 575 28,900 900 Climbing Guam Center
Fri 05:10:30 PM 14.2500 147.0500 69° East 500 575 29,900 1,100 Climbing Guam Center
Fri 05:11:30 PM 14.2833 147.1833 76° East 510 587 31,100 1,150 Climbing Guam Center
Fri 05:12:30 PM 14.3333 147.3167 69° East 500 575 32,200 1,050 Climbing Guam Center
Fri 05:13:30 PM 14.3833 147.4667 71° East 500 575 33,200 900 Climbing Guam Center
Fri 05:14:30 PM 14.4167 147.5833 74° East 490 564 34,000 900 Climbing Guam Center
Fri 05:15:30 PM 14.4667 147.7333 71° East 490 564 35,000 496 Climbing Guam Center
Fri 05:16:31 PM 14.5000 147.8667 76° East 490 564 35,000  Level Guam Center
Fri 05:17:31 PM 14.5000 148.0000 90° East 490 564 35,000  Level Guam Center
Fri 05:18:31 PM 14.5000 148.1500 90° East 500 575 35,000  Level Guam Center
Fri 05:19:31 PM 14.5167 148.2833 83° East 480 552 35,000  Level Guam Center
Fri 05:27:57 PM 14.9667 149.3333 74° East 490 564 35,000  Level Oakland Oceanic (ODAPS)
Fri 05:28:38 PM 14.9833 149.4167 74° East 492 566 35,000  Level Oakland Oceanic (ODAPS)
Fri 05:28:57 PM 15.0000 149.4500 74° East 490 564 35,000  Level Oakland Oceanic (ODAPS)
Fri 05:29:00 PM 14.8680 149.3694 74° East  Level Estimated
Fri 05:29:18 PM 15.0167 149.5000 74° East 490 564 35,000  Level Oakland Oceanic (ODAPS)
Fri 05:38:50 PM 15.3667 150.8000 75° East 494 568 35,000  Level Oakland Oceanic (ODAPS)
Fri 05:47:37 PM 15.6500 151.9333 75° East 495 570 35,000  Level Oakland Oceanic (ODAPS)
Fri 05:52:41 PM 15.8500 152.6833 75° East 496 571 35,000  Level Oakland Oceanic (ODAPS)
Fri 06:06:43 PM 16.3167 154.6000 76° East 490 564 35,000  Level Oakland Oceanic (ODAPS)
Fri 06:20:26 PM 16.7833 156.5167 76° East 490 564 35,000  Level Oakland Oceanic (ODAPS)
Fri 06:29:40 PM 17.0667 157.7500 77° East 492 566 35,000 22 Level Oakland Oceanic (ODAPS)
Fri 06:34:19 PM 17.2167 158.4333 77° East 494 568 35,300 54 Climbing Oakland Oceanic (ODAPS)
Fri 06:48:10 PM 17.6333 160.3833 78° East 496 571 36,000 25 Climbing Oakland Oceanic (ODAPS)
Fri 07:02:03 PM 18.0333 162.3500 78° East 501 577 36,000  Level Oakland Oceanic (ODAPS)
Fri 07:15:56 PM 18.4167 164.3333 79° East 504 580 36,000  Level Oakland Oceanic (ODAPS)
Fri 07:29:20 PM 18.7833 166.2500 81° East 540 621 36,000  Level Oakland Oceanic (ODAPS)
Fri 07:29:58 PM 18.7833 166.3000 80° East 525 604 36,000  Level Oakland Oceanic (ODAPS)
Fri 07:33:03 PM 18.8500 166.7000 80° East 507 583 36,000  Level Oakland Oceanic (ODAPS)
Fri 07:43:40 PM 19.1167 168.2167 80° East 508 585 36,000  Level Oakland Oceanic (ODAPS)
Fri 07:57:32 PM 19.4333 170.2500 81° East 511 588 36,000  Level Oakland Oceanic (ODAPS)
Fri 08:11:25 PM 19.7333 172.3000 82° East 517 595 36,000  Level Oakland Oceanic (ODAPS)
Fri 08:18:15 PM 19.8667 173.3167 82° East 516 594 36,000  Level Oakland Oceanic (ODAPS)
Fri 08:25:17 PM 20.0167 174.4000 83° East 517 595 36,000  Level Oakland Oceanic (ODAPS)
Fri 08:39:10 PM 20.2667 176.5167 84° East 522 601 36,000 57 Level Oakland Oceanic (ODAPS)
Fri 08:49:45 PM 20.4333 178.1333 84° East 517 595 37,400 144 Climbing Oakland Oceanic (ODAPS)
Fri 08:53:01 PM 20.4833 178.6500 84° East 513 590 38,000 49 Climbing Oakland Oceanic (ODAPS)
Fri 09:02:05 PM 20.6000 -180.0000 85° East 513 590 38,000  Level Oakland Oceanic (ODAPS)
Fri 09:06:54 PM 20.6667 -179.2500 85° East 512 589 38,000  Level Oakland Oceanic (ODAPS)
Fri 09:20:46 PM 20.8333 -177.1167 86° East 510 587 38,000  Level Oakland Oceanic (ODAPS)
Fri 09:34:37 PM 20.9500 -175.0167 86° East 515 593 38,000  Level Oakland Oceanic (ODAPS)
Fri 09:48:30 PM 21.0500 -172.9167 87° East 508 585 38,000  Level Oakland Oceanic (ODAPS)
Fri 09:54:56 PM 21.1000 -171.9833 88° East 496 571 38,000 72 Level Oakland Oceanic (ODAPS)
Fri 10:02:22 PM 21.1333 -170.8333 89° East 493 567 39,000 47 Climbing Oakland Oceanic (ODAPS)
Fri 10:16:15 PM 21.1667 -168.8000 89° East 485 558 39,000  Level Oakland Oceanic (ODAPS)
Fri 10:30:07 PM 21.1667 -166.8167 90° East 476 548 39,000  Level Oakland Oceanic (ODAPS)
Fri 10:43:59 PM 21.1667 -164.8833 91° East 471 542 39,000 -92 Level Oakland Oceanic (ODAPS)
Fri 10:51:48 PM 21.1167 -163.7500 88° East 500 575 37,000  Descending Honolulu Center
Fri 10:52:00 PM 21.1556 -163.7659 88° East 471 542 39,000  Climbing FlightAware Transoceanic
Fri 10:52:49 PM 21.1167 -163.6000 90° East 490 564 37,000  Descending Honolulu Center
Fri 10:53:00 PM 21.1611 -163.6151 88° East 471 542 39,000 1,690 Climbing FlightAware Transoceanic
Fri 10:54:00 PM 21.1664 -163.4643 88° East 471 542 39,000 -1,875 Level FlightAware Transoceanic
Fri 10:54:04 PM 21.1333 -163.4333 84° East 500 575 37,000  Descending Honolulu Center
Fri 10:55:00 PM 21.1716 -163.3134 88° East 471 542 39,000  Climbing FlightAware Transoceanic
Fri 10:55:14 PM 21.1500 -163.2500 84° East 460 529 37,000  Descending Honolulu Center
Fri 10:56:00 PM 21.1766 -163.1626 88° East 471 542 39,000  Climbing FlightAware Transoceanic
Fri 10:56:15 PM 21.1500 -163.1167 90° East 480 552 37,000  Descending Honolulu Center
Fri 10:57:00 PM 21.1815 -163.0118 88° East 471 542 39,000  Climbing FlightAware Transoceanic
Fri 10:57:15 PM 21.1667 -162.9667 83° East 490 564 37,000 -1,600 Descending Honolulu Center
Fri 10:58:15 PM 21.1833 -162.8167 83° East 490 564 37,000  Level Honolulu Center
Fri 10:59:16 PM 21.1833 -162.6833 90° East 490 564 37,000  Level Honolulu Center
Fri 11:00:16 PM 21.2000 -162.5333 83° East 480 552 37,000  Level Honolulu Center
Fri 11:01:16 PM 21.2167 -162.4000 82° East 480 552 37,000  Level Honolulu Center
Fri 11:02:17 PM 21.2167 -162.2500 90° East 480 552 37,000  Level Honolulu Center
Fri 11:03:17 PM 21.2333 -162.1000 83° East 480 552 37,000  Level Honolulu Center
Fri 11:04:17 PM 21.2500 -161.9667 82° East 480 552 37,000  Level Honolulu Center
Fri 11:05:17 PM 21.2500 -161.8167 90° East 490 564 37,000  Level Honolulu Center
Fri 11:06:18 PM 21.2667 -161.6833 82° East 480 552 37,000  Level Honolulu Center
Fri 11:07:18 PM 21.2667 -161.5333 90° East 490 564 37,000  Level Honolulu Center
Fri 11:08:18 PM 21.2833 -161.3833 83° East 500 575 37,000  Level Honolulu Center
Fri 11:09:19 PM 21.3000 -161.2333 83° East 490 564 37,000  Level Honolulu Center
Fri 11:10:19 PM 21.3000 -161.0833 90° East 500 575 37,000  Level Honolulu Center
Fri 11:11:20 PM 21.3167 -160.9500 82° East 500 575 37,000  Level Honolulu Center
Fri 11:12:20 PM 21.3167 -160.8000 90° East 490 564 37,000  Level Honolulu Center
Fri 11:13:20 PM 21.3333 -160.6500 83° East 500 575 37,000 942 Level Honolulu Center
Fri 11:14:21 PM 21.3333 -160.5000 90° East 490 564 38,900 992 Climbing Honolulu Center
Fri 11:15:21 PM 21.3500 -160.3500 83° East 500 575 39,000 -50 Climbing Honolulu Center
Fri 11:16:21 PM 21.3500 -160.2167 90° East 480 552 38,800 -1,537 Descending Honolulu Center
Fri 11:17:22 PM 21.3667 -160.0667 83° East 480 552 35,900 -3,124 Descending Honolulu Center
Fri 11:18:22 PM 21.3667 -159.9167 90° East 500 575 32,500 -2,900 Descending Honolulu Center
Fri 11:19:22 PM 21.3833 -159.7667 83° East 500 575 30,100 -2,132 Descending Honolulu Center
Fri 11:20:23 PM 21.3833 -159.6333 90° East 490 564 28,200 -1,983 Descending Honolulu Center
Fri 11:21:23 PM 21.4000 -159.4667 84° East 460 529 26,100 -1,983 Descending Honolulu Center
Fri 11:22:24 PM 21.4000 -159.3333 90° East 450 518 24,200 -2,033 Descending Honolulu Center
Fri 11:23:24 PM 21.4167 -159.2000 82° East 430 495 22,000 -2,150 Descending Honolulu Center
Fri 11:24:24 PM 21.4167 -159.0667 90° East 420 483 19,900 -2,083 Descending Honolulu Center
Fri 11:25:25 PM 21.4333 -158.9500 81° East 410 472 17,800 -1,884 Descending Honolulu Center
Fri 11:26:25 PM 21.4333 -158.8333 90° East 400 460 16,100 -1,983 Descending Honolulu Center
Fri 11:27:26 PM 21.4333 -158.7167 90° East 380 437 13,800 -2,132 Descending Honolulu Center
Fri 11:28:26 PM 21.4500 -158.6000 81° East 370 426 11,800 -2,150 Descending Honolulu Center
Fri 11:29:26 PM 21.4167 -158.5000 110° East 350 403 9,500 -2,231 Descending Honolulu Center
Fri 11:30:27 PM 21.4000 -158.4167 102° East 300 345 7,300 -1,736 Descending Honolulu Center
Fri 11:31:27 PM 21.3667 -158.3333 113° Southeast 270 311 6,000 -1,240 Descending Honolulu Center
Fri 11:32:28 PM 21.3500 -158.2500 102° East 260 299 4,800 -1,190 Descending Honolulu Center
Fri 11:33:28 PM 21.3333 -158.1833 105° East 240 276 3,600 -950 Descending Honolulu Center
Fri 11:34:28 PM 21.3167 -158.1167 105° East 210 242 2,900 -645 Descending Honolulu Center
Fri 11:35:29 PM 21.3167 -158.0667 90° East 170 196 2,300 -694 Descending Honolulu Center
Fri 11:36:29 PM 21.3167 -158.0167 90° East 150 173 1,500 -750 Descending Honolulu Center
Fri 11:37:29 PM 21.3167 -157.9833 90° East 150 173 800 -700 Descending Honolulu Center

Login

Don't have an account? Register now (free) for customized features, flight alerts, and more!